sensor_id;sensor_type;location;lat;lon;timestamp;pressure;altitude;pressure_sealevel;temperature;humidity
41686;BME280;27370;42.764;23.432;2023-03-19T00:01:12;96146.81;;;-1.87;100.00
41686;BME280;27370;42.764;23.432;2023-03-19T00:03:38;96135.25;;;-1.91;100.00
41686;BME280;27370;42.764;23.432;2023-03-19T00:06:04;96143.53;;;-1.84;100.00
41686;BME280;27370;42.764;23.432;2023-03-19T00:08:29;96141.97;;;-1.85;100.00
41686;BME280;27370;42.764;23.432;2023-03-19T00:10:55;96135.41;;;-1.79;100.00
41686;BME280;27370;42.764;23.432;2023-03-19T00:13:20;96135.41;;;-1.79;100.00
41686;BME280;27370;42.764;23.432;2023-03-19T00:15:46;96134.47;;;-1.74;100.00
41686;BME280;27370;42.764;23.432;2023-03-19T00:18:12;96123.69;;;-1.87;100.00
41686;BME280;27370;42.764;23.432;2023-03-19T00:20:38;96119.94;;;-1.86;100.00
41686;BME280;27370;42.764;23.432;2023-03-19T00:23:03;96129.94;;;-1.82;100.00
41686;BME280;27370;42.764;23.432;2023-03-19T00:25:29;96129.78;;;-1.77;100.00
41686;BME280;27370;42.764;23.432;2023-03-19T00:27:54;96129.47;;;-1.76;100.00
41686;BME280;27370;42.764;23.432;2023-03-19T00:30:21;96117.75;;;-1.83;100.00
41686;BME280;27370;42.764;23.432;2023-03-19T00:32:47;96118.25;;;-1.90;100.00
41686;BME280;27370;42.764;23.432;2023-03-19T00:35:13;96120.88;;;-1.81;100.00
41686;BME280;27370;42.764;23.432;2023-03-19T00:37:40;96107.47;;;-1.76;100.00
41686;BME280;27370;42.764;23.432;2023-03-19T00:40:07;96108.72;;;-1.74;100.00
41686;BME280;27370;42.764;23.432;2023-03-19T00:42:33;96107.78;;;-1.95;100.00
41686;BME280;27370;42.764;23.432;2023-03-19T00:44:58;96105.63;;;-2.02;100.00
41686;BME280;27370;42.764;23.432;2023-03-19T00:47:24;96102.34;;;-2.16;100.00
41686;BME280;27370;42.764;23.432;2023-03-19T00:49:50;96098.41;;;-2.27;100.00
41686;BME280;27370;42.764;23.432;2023-03-19T00:52:16;96083.75;;;-2.33;100.00
41686;BME280;27370;42.764;23.432;2023-03-19T00:54:42;96109.19;;;-2.24;100.00
41686;BME280;27370;42.764;23.432;2023-03-19T00:57:08;96101.88;;;-2.18;100.00
41686;BME280;27370;42.764;23.432;2023-03-19T00:59:33;96098.28;;;-2.13;100.00
41686;BME280;27370;42.764;23.432;2023-03-19T01:02:00;96098.09;;;-2.08;100.00
41686;BME280;27370;42.764;23.432;2023-03-19T01:04:25;96100.78;;;-2.00;100.00
41686;BME280;27370;42.764;23.432;2023-03-19T01:06:51;96104.50;;;-2.09;100.00
41686;BME280;27370;42.764;23.432;2023-03-19T01:09:17;96088.28;;;-2.17;100.00
41686;BME280;27370;42.764;23.432;2023-03-19T01:11:43;96097.00;;;-2.07;100.00
41686;BME280;27370;42.764;23.432;2023-03-19T01:14:08;96081.44;;;-2.26;100.00
41686;BME280;27370;42.764;23.432;2023-03-19T01:16:34;96085.81;;;-2.22;100.00
41686;BME280;27370;42.764;23.432;2023-03-19T01:19:01;96087.66;;;-2.13;100.00
41686;BME280;27370;42.764;23.432;2023-03-19T01:21:27;96095.31;;;-2.12;100.00
41686;BME280;27370;42.764;23.432;2023-03-19T01:23:57;96082.69;;;-2.24;100.00
41686;BME280;27370;42.764;23.432;2023-03-19T01:26:24;96099.81;;;-2.30;100.00
41686;BME280;27370;42.764;23.432;2023-03-19T01:28:54;96091.09;;;-2.48;100.00
41686;BME280;27370;42.764;23.432;2023-03-19T01:31:22;96085.44;;;-2.63;100.00
41686;BME280;27370;42.764;23.432;2023-03-19T01:33:58;96085.28;;;-2.67;100.00
41686;BME280;27370;42.764;23.432;2023-03-19T01:36:42;96093.56;;;-2.68;100.00
41686;BME280;27370;42.764;23.432;2023-03-19T01:39:07;96094.59;;;-2.78;100.00
41686;BME280;27370;42.764;23.432;2023-03-19T01:41:35;96085.59;;;-2.68;100.00
41686;BME280;27370;42.764;23.432;2023-03-19T01:44:33;96079.69;;;-2.57;100.00
41686;BME280;27370;42.764;23.432;2023-03-19T01:47:36;96077.84;;;-2.48;100.00
41686;BME280;27370;42.764;23.432;2023-03-19T01:50:41;96078.78;;;-2.43;100.00
41686;BME280;27370;42.764;23.432;2023-03-19T01:53:24;96071.91;;;-2.44;100.00
41686;BME280;27370;42.764;23.432;2023-03-19T01:56:03;96077.06;;;-2.39;100.00
41686;BME280;27370;42.764;23.432;2023-03-19T01:58:42;96071.13;;;-2.45;100.00
41686;BME280;27370;42.764;23.432;2023-03-19T02:01:53;96081.25;;;-2.38;100.00
41686;BME280;27370;42.764;23.432;2023-03-19T02:04:19;96081.25;;;-2.38;100.00
41686;BME280;27370;42.764;23.432;2023-03-19T02:06:45;96077.22;;;-2.44;100.00
41686;BME280;27370;42.764;23.432;2023-03-19T02:09:13;96086.06;;;-2.49;100.00
41686;BME280;27370;42.764;23.432;2023-03-19T02:11:39;96085.59;;;-2.51;100.00
41686;BME280;27370;42.764;23.432;2023-03-19T02:14:05;96080.91;;;-2.63;100.00
41686;BME280;27370;42.764;23.432;2023-03-19T02:16:32;96091.81;;;-2.73;100.00
41686;BME280;27370;42.764;23.432;2023-03-19T02:18:57;96099.44;;;-2.80;100.00
41686;BME280;27370;42.764;23.432;2023-03-19T02:21:23;96100.88;;;-2.65;100.00
41686;BME280;27370;42.764;23.432;2023-03-19T02:23:54;96096.69;;;-2.58;100.00
41686;BME280;27370;42.764;23.432;2023-03-19T02:26:41;96103.03;;;-2.76;100.00
41686;BME280;27370;42.764;23.432;2023-03-19T02:29:08;96110.88;;;-3.11;100.00
41686;BME280;27370;42.764;23.432;2023-03-19T02:31:35;96119.84;;;-3.20;100.00
41686;BME280;27370;42.764;23.432;2023-03-19T02:34:05;96110.09;;;-3.42;100.00
41686;BME280;27370;42.764;23.432;2023-03-19T02:36:41;96110.75;;;-3.67;100.00
41686;BME280;27370;42.764;23.432;2023-03-19T02:39:30;96099.03;;;-3.75;100.00
41686;BME280;27370;42.764;23.432;2023-03-19T02:41:58;96116.50;;;-3.65;100.00
41686;BME280;27370;42.764;23.432;2023-03-19T02:44:25;96122.84;;;-3.75;100.00
41686;BME280;27370;42.764;23.432;2023-03-19T02:46:51;96107.47;;;-3.64;100.00
41686;BME280;27370;42.764;23.432;2023-03-19T02:49:17;96109.22;;;-3.37;100.00
41686;BME280;27370;42.764;23.432;2023-03-19T02:51:43;96117.13;;;-3.68;100.00
41686;BME280;27370;42.764;23.432;2023-03-19T02:54:09;96114.19;;;-3.89;100.00
41686;BME280;27370;42.764;23.432;2023-03-19T02:56:35;96106.06;;;-3.93;100.00
41686;BME280;27370;42.764;23.432;2023-03-19T02:59:00;96103.66;;;-4.03;100.00
41686;BME280;27370;42.764;23.432;2023-03-19T03:01:26;96113.78;;;-3.83;100.00
41686;BME280;27370;42.764;23.432;2023-03-19T03:03:51;96109.47;;;-3.70;100.00
41686;BME280;27370;42.764;23.432;2023-03-19T03:06:17;96114.31;;;-3.94;100.00
41686;BME280;27370;42.764;23.432;2023-03-19T03:08:43;96119.25;;;-3.79;100.00
41686;BME280;27370;42.764;23.432;2023-03-19T03:11:08;96102.78;;;-3.67;100.00
41686;BME280;27370;42.764;23.432;2023-03-19T03:13:34;96108.41;;;-3.69;100.00
41686;BME280;27370;42.764;23.432;2023-03-19T03:16:01;96106.53;;;-3.68;100.00
41686;BME280;27370;42.764;23.432;2023-03-19T03:18:27;96113.56;;;-3.64;100.00
41686;BME280;27370;42.764;23.432;2023-03-19T03:20:53;96122.28;;;-3.63;100.00
41686;BME280;27370;42.764;23.432;2023-03-19T03:23:19;96116.28;;;-3.78;100.00
41686;BME280;27370;42.764;23.432;2023-03-19T03:25:50;96115.69;;;-3.75;100.00
41686;BME280;27370;42.764;23.432;2023-03-19T03:28:16;96127.63;;;-3.55;100.00
41686;BME280;27370;42.764;23.432;2023-03-19T03:30:44;96130.91;;;-3.58;100.00
41686;BME280;27370;42.764;23.432;2023-03-19T03:33:10;96124.34;;;-3.60;100.00
41686;BME280;27370;42.764;23.432;2023-03-19T03:35:35;96120.63;;;-3.59;100.00
41686;BME280;27370;42.764;23.432;2023-03-19T03:38:01;96135.75;;;-3.51;100.00
41686;BME280;27370;42.764;23.432;2023-03-19T03:40:27;96137.91;;;-3.53;100.00
41686;BME280;27370;42.764;23.432;2023-03-19T03:42:53;96145.59;;;-3.43;100.00
41686;BME280;27370;42.764;23.432;2023-03-19T03:45:19;96129.38;;;-3.50;100.00
41686;BME280;27370;42.764;23.432;2023-03-19T03:47:45;96138.94;;;-3.63;100.00
41686;BME280;27370;42.764;23.432;2023-03-19T03:50:10;96146.66;;;-3.75;100.00
41686;BME280;27370;42.764;23.432;2023-03-19T03:52:38;96146.78;;;-4.03;100.00
41686;BME280;27370;42.764;23.432;2023-03-19T03:55:04;96143.72;;;-4.10;100.00
41686;BME280;27370;42.764;23.432;2023-03-19T03:57:30;96144.44;;;-4.04;100.00
41686;BME280;27370;42.764;23.432;2023-03-19T03:59:55;96141.88;;;-4.09;100.00
41686;BME280;27370;42.764;23.432;2023-03-19T04:02:21;96137.00;;;-4.16;100.00
41686;BME280;27370;42.764;23.432;2023-03-19T04:04:47;96134.47;;;-4.21;100.00
41686;BME280;27370;42.764;23.432;2023-03-19T04:07:14;96130.44;;;-4.18;100.00
41686;BME280;27370;42.764;23.432;2023-03-19T04:09:50;96126.31;;;-4.11;100.00
41686;BME280;27370;42.764;23.432;2023-03-19T04:12:16;96124.53;;;-4.02;100.00
41686;BME280;27370;42.764;23.432;2023-03-19T04:14:42;96129.88;;;-3.93;100.00
41686;BME280;27370;42.764;23.432;2023-03-19T04:17:08;96136.50;;;-3.82;100.00
41686;BME280;27370;42.764;23.432;2023-03-19T04:19:34;96132.28;;;-3.83;100.00
41686;BME280;27370;42.764;23.432;2023-03-19T04:22:00;96132.28;;;-3.83;100.00
41686;BME280;27370;42.764;23.432;2023-03-19T04:24:28;96124.94;;;-3.86;100.00
41686;BME280;27370;42.764;23.432;2023-03-19T04:26:54;96124.22;;;-3.78;100.00
41686;BME280;27370;42.764;23.432;2023-03-19T04:29:19;96142.00;;;-3.70;100.00
41686;BME280;27370;42.764;23.432;2023-03-19T04:31:45;96138.41;;;-3.74;100.00
41686;BME280;27370;42.764;23.432;2023-03-19T04:34:11;96146.22;;;-3.68;100.00
41686;BME280;27370;42.764;23.432;2023-03-19T04:36:37;96151.28;;;-3.58;100.00
41686;BME280;27370;42.764;23.432;2023-03-19T04:39:03;96147.28;;;-3.47;100.00
41686;BME280;27370;42.764;23.432;2023-03-19T04:41:30;96151.63;;;-3.51;100.00
41686;BME280;27370;42.764;23.432;2023-03-19T04:44:22;96154.88;;;-3.77;100.00
41686;BME280;27370;42.764;23.432;2023-03-19T04:46:48;96151.22;;;-3.89;100.00
41686;BME280;27370;42.764;23.432;2023-03-19T04:49:15;96149.72;;;-3.82;100.00
41686;BME280;27370;42.764;23.432;2023-03-19T04:51:41;96153.63;;;-3.57;100.00
41686;BME280;27370;42.764;23.432;2023-03-19T04:54:07;96150.03;;;-3.61;100.00
41686;BME280;27370;42.764;23.432;2023-03-19T04:56:33;96146.47;;;-3.56;100.00
41686;BME280;27370;42.764;23.432;2023-03-19T04:58:58;96149.81;;;-3.64;100.00
41686;BME280;27370;42.764;23.432;2023-03-19T05:01:24;96158.13;;;-3.57;100.00
41686;BME280;27370;42.764;23.432;2023-03-19T05:03:59;96158.97;;;-3.48;100.00
41686;BME280;27370;42.764;23.432;2023-03-19T05:06:25;96154.31;;;-3.43;100.00
41686;BME280;27370;42.764;23.432;2023-03-19T05:08:52;96157.94;;;-3.08;100.00
41686;BME280;27370;42.764;23.432;2023-03-19T05:11:18;96154.91;;;-2.84;100.00
41686;BME280;27370;42.764;23.432;2023-03-19T05:14:00;96153.13;;;-2.57;100.00
41686;BME280;27370;42.764;23.432;2023-03-19T05:16:32;96140.97;;;-2.58;100.00
41686;BME280;27370;42.764;23.432;2023-03-19T05:18:59;96156.44;;;-2.34;100.00
41686;BME280;27370;42.764;23.432;2023-03-19T05:21:25;96153.97;;;-2.13;100.00
41686;BME280;27370;42.764;23.432;2023-03-19T05:23:52;96166.78;;;-1.90;100.00
41686;BME280;27370;42.764;23.432;2023-03-19T05:26:20;96151.50;;;-1.58;100.00
41686;BME280;27370;42.764;23.432;2023-03-19T05:29:14;96160.38;;;-0.90;100.00
41686;BME280;27370;42.764;23.432;2023-03-19T05:31:53;96152.69;;;-0.24;100.00
41686;BME280;27370;42.764;23.432;2023-03-19T05:34:20;96155.44;;;0.09;100.00
41686;BME280;27370;42.764;23.432;2023-03-19T05:36:46;96167.75;;;0.35;100.00
41686;BME280;27370;42.764;23.432;2023-03-19T05:39:16;96169.19;;;0.11;100.00
41686;BME280;27370;42.764;23.432;2023-03-19T05:41:43;96173.59;;;-0.14;100.00
41686;BME280;27370;42.764;23.432;2023-03-19T05:44:09;96175.25;;;-0.59;100.00
41686;BME280;27370;42.764;23.432;2023-03-19T05:46:55;96172.94;;;-0.61;100.00
41686;BME280;27370;42.764;23.432;2023-03-19T05:49:22;96164.50;;;-0.63;100.00
41686;BME280;27370;42.764;23.432;2023-03-19T05:51:48;96151.34;;;-0.68;100.00
41686;BME280;27370;42.764;23.432;2023-03-19T05:54:13;96158.25;;;-0.38;100.00
41686;BME280;27370;42.764;23.432;2023-03-19T05:57:08;96172.78;;;0.15;100.00
41686;BME280;27370;42.764;23.432;2023-03-19T05:59:42;96166.66;;;0.36;100.00
41686;BME280;27370;42.764;23.432;2023-03-19T06:02:21;96165.75;;;0.65;100.00
41686;BME280;27370;42.764;23.432;2023-03-19T06:04:51;96175.66;;;0.97;100.00
41686;BME280;27370;42.764;23.432;2023-03-19T06:07:20;96167.56;;;1.18;100.00
41686;BME280;27370;42.764;23.432;2023-03-19T06:09:46;96171.69;;;1.15;100.00
41686;BME280;27370;42.764;23.432;2023-03-19T06:12:11;96175.25;;;1.19;100.00
41686;BME280;27370;42.764;23.432;2023-03-19T06:14:43;96165.66;;;1.06;100.00
41686;BME280;27370;42.764;23.432;2023-03-19T06:17:35;96172.31;;;1.12;100.00
41686;BME280;27370;42.764;23.432;2023-03-19T06:20:05;96170.34;;;1.21;100.00
41686;BME280;27370;42.764;23.432;2023-03-19T06:22:30;96180.34;;;1.25;100.00
41686;BME280;27370;42.764;23.432;2023-03-19T06:24:56;96176.56;;;1.26;100.00
41686;BME280;27370;42.764;23.432;2023-03-19T06:27:22;96177.34;;;1.26;100.00
41686;BME280;27370;42.764;23.432;2023-03-19T06:29:48;96169.38;;;1.38;100.00
41686;BME280;27370;42.764;23.432;2023-03-19T06:32:22;96176.38;;;1.43;100.00
41686;BME280;27370;42.764;23.432;2023-03-19T06:34:52;96182.72;;;1.50;100.00
41686;BME280;27370;42.764;23.432;2023-03-19T06:37:19;96180.59;;;1.56;100.00
41686;BME280;27370;42.764;23.432;2023-03-19T06:39:45;96177.72;;;1.61;100.00
41686;BME280;27370;42.764;23.432;2023-03-19T06:42:11;96179.25;;;1.74;100.00
41686;BME280;27370;42.764;23.432;2023-03-19T06:44:37;96183.44;;;2.00;100.00
41686;BME280;27370;42.764;23.432;2023-03-19T06:47:03;96183.22;;;2.17;100.00
41686;BME280;27370;42.764;23.432;2023-03-19T06:49:29;96192.84;;;2.34;100.00
41686;BME280;27370;42.764;23.432;2023-03-19T06:51:54;96196.50;;;2.41;100.00
41686;BME280;27370;42.764;23.432;2023-03-19T06:54:20;96194.75;;;2.73;100.00
41686;BME280;27370;42.764;23.432;2023-03-19T06:56:45;96189.91;;;2.79;100.00
41686;BME280;27370;42.764;23.432;2023-03-19T06:59:11;96197.06;;;2.75;100.00
41686;BME280;27370;42.764;23.432;2023-03-19T07:01:39;96195.84;;;2.72;100.00
41686;BME280;27370;42.764;23.432;2023-03-19T07:04:06;96179.56;;;2.78;100.00
41686;BME280;27370;42.764;23.432;2023-03-19T07:06:31;96188.72;;;2.92;100.00
41686;BME280;27370;42.764;23.432;2023-03-19T07:08:59;96179.75;;;2.85;100.00
41686;BME280;27370;42.764;23.432;2023-03-19T07:11:24;96185.19;;;2.88;100.00
41686;BME280;27370;42.764;23.432;2023-03-19T07:13:50;96184.44;;;3.03;100.00
41686;BME280;27370;42.764;23.432;2023-03-19T07:16:15;96187.16;;;3.19;100.00
41686;BME280;27370;42.764;23.432;2023-03-19T07:18:41;96186.38;;;3.19;100.00
41686;BME280;27370;42.764;23.432;2023-03-19T07:21:06;96178.66;;;3.01;100.00
41686;BME280;27370;42.764;23.432;2023-03-19T07:23:32;96189.91;;;3.23;100.00
41686;BME280;27370;42.764;23.432;2023-03-19T07:25:57;96188.34;;;3.37;100.00
41686;BME280;27370;42.764;23.432;2023-03-19T07:28:23;96197.78;;;3.63;100.00
41686;BME280;27370;42.764;23.432;2023-03-19T07:30:51;96190.75;;;3.74;100.00
41686;BME280;27370;42.764;23.432;2023-03-19T07:33:17;96181.94;;;3.74;100.00
41686;BME280;27370;42.764;23.432;2023-03-19T07:35:43;96190.75;;;3.58;100.00
41686;BME280;27370;42.764;23.432;2023-03-19T07:38:08;96177.72;;;3.73;100.00
41686;BME280;27370;42.764;23.432;2023-03-19T07:40:34;96187.28;;;3.89;100.00
41686;BME280;27370;42.764;23.432;2023-03-19T07:42:59;96172.66;;;4.03;100.00
41686;BME280;27370;42.764;23.432;2023-03-19T07:45:25;96181.84;;;4.21;100.00
41686;BME280;27370;42.764;23.432;2023-03-19T07:47:50;96172.63;;;4.38;100.00
41686;BME280;27370;42.764;23.432;2023-03-19T07:50:17;96181.81;;;4.56;100.00
41686;BME280;27370;42.764;23.432;2023-03-19T07:52:45;96164.38;;;4.66;100.00
41686;BME280;27370;42.764;23.432;2023-03-19T07:55:11;96169.91;;;4.96;100.00
41686;BME280;27370;42.764;23.432;2023-03-19T07:57:37;96164.19;;;4.97;100.00
41686;BME280;27370;42.764;23.432;2023-03-19T08:00:03;96180.56;;;5.11;100.00
41686;BME280;27370;42.764;23.432;2023-03-19T08:02:38;96170.34;;;4.98;100.00
41686;BME280;27370;42.764;23.432;2023-03-19T08:05:05;96176.34;;;4.91;100.00
41686;BME280;27370;42.764;23.432;2023-03-19T08:07:31;96170.53;;;5.08;100.00
41686;BME280;27370;42.764;23.432;2023-03-19T08:09:57;96163.66;;;5.30;100.00
41686;BME280;27370;42.764;23.432;2023-03-19T08:12:25;96160.84;;;5.46;100.00
41686;BME280;27370;42.764;23.432;2023-03-19T08:14:51;96153.47;;;5.20;100.00
41686;BME280;27370;42.764;23.432;2023-03-19T08:17:17;96161.72;;;5.53;100.00
41686;BME280;27370;42.764;23.432;2023-03-19T08:19:42;96151.00;;;6.06;100.00
41686;BME280;27370;42.764;23.432;2023-03-19T08:22:08;96160.50;;;6.27;100.00
41686;BME280;27370;42.764;23.432;2023-03-19T08:24:33;96158.78;;;6.41;100.00
41686;BME280;27370;42.764;23.432;2023-03-19T08:26:59;96145.75;;;6.43;100.00
41686;BME280;27370;42.764;23.432;2023-03-19T08:29:25;96149.88;;;6.34;100.00
41686;BME280;27370;42.764;23.432;2023-03-19T08:31:53;96156.41;;;6.66;100.00
41686;BME280;27370;42.764;23.432;2023-03-19T08:34:21;96147.81;;;6.91;100.00
41686;BME280;27370;42.764;23.432;2023-03-19T08:36:46;96147.22;;;7.49;100.00
41686;BME280;27370;42.764;23.432;2023-03-19T08:39:12;96149.03;;;7.37;100.00
41686;BME280;27370;42.764;23.432;2023-03-19T08:41:38;96141.25;;;7.25;100.00
41686;BME280;27370;42.764;23.432;2023-03-19T08:44:03;96138.09;;;7.20;100.00
41686;BME280;27370;42.764;23.432;2023-03-19T08:46:29;96137.28;;;7.56;100.00
41686;BME280;27370;42.764;23.432;2023-03-19T08:48:54;96124.06;;;7.44;100.00
41686;BME280;27370;42.764;23.432;2023-03-19T08:51:20;96133.22;;;7.80;100.00
41686;BME280;27370;42.764;23.432;2023-03-19T08:53:48;96132.31;;;8.24;100.00
41686;BME280;27370;42.764;23.432;2023-03-19T08:56:13;96116.50;;;8.19;100.00
41686;BME280;27370;42.764;23.432;2023-03-19T08:58:39;96130.53;;;8.46;97.85
41686;BME280;27370;42.764;23.432;2023-03-19T09:01:08;96127.06;;;8.45;91.73
41686;BME280;27370;42.764;23.432;2023-03-19T09:03:36;96128.28;;;8.62;92.80
41686;BME280;27370;42.764;23.432;2023-03-19T09:06:03;96130.53;;;8.49;86.73
41686;BME280;27370;42.764;23.432;2023-03-19T09:08:29;96110.13;;;8.59;95.44
41686;BME280;27370;42.764;23.432;2023-03-19T09:10:55;96105.22;;;8.93;92.20
41686;BME280;27370;42.764;23.432;2023-03-19T09:13:22;96105.25;;;9.11;88.25
41686;BME280;27370;42.764;23.432;2023-03-19T09:15:48;96106.44;;;9.42;82.15
41686;BME280;27370;42.764;23.432;2023-03-19T09:18:13;96100.66;;;9.61;82.54
41686;BME280;27370;42.764;23.432;2023-03-19T09:20:40;96100.63;;;9.79;91.18
41686;BME280;27370;42.764;23.432;2023-03-19T09:23:06;96087.09;;;9.68;89.14
41686;BME280;27370;42.764;23.432;2023-03-19T09:25:31;96107.97;;;9.78;79.46
41686;BME280;27370;42.764;23.432;2023-03-19T09:27:57;96095.56;;;9.92;85.87
41686;BME280;27370;42.764;23.432;2023-03-19T09:30:23;96101.75;;;9.99;77.23
41686;BME280;27370;42.764;23.432;2023-03-19T09:32:48;96088.94;;;10.32;73.12
41686;BME280;27370;42.764;23.432;2023-03-19T09:35:14;96097.00;;;10.50;79.62
41686;BME280;27370;42.764;23.432;2023-03-19T09:37:40;96097.19;;;10.91;71.94
41686;BME280;27370;42.764;23.432;2023-03-19T09:40:06;96081.69;;;10.91;70.54
41686;BME280;27370;42.764;23.432;2023-03-19T09:42:54;96085.81;;;11.14;75.04
41686;BME280;27370;42.764;23.432;2023-03-19T09:45:23;96088.78;;;11.33;74.11
41686;BME280;27370;42.764;23.432;2023-03-19T09:47:53;96092.50;;;11.50;72.19
41686;BME280;27370;42.764;23.432;2023-03-19T09:50:23;96089.38;;;11.55;71.16
41686;BME280;27370;42.764;23.432;2023-03-19T09:52:57;96083.06;;;11.65;65.22
41686;BME280;27370;42.764;23.432;2023-03-19T09:55:47;96082.91;;;11.39;70.01
41686;BME280;27370;42.764;23.432;2023-03-19T09:58:18;96071.09;;;11.63;65.48
41686;BME280;27370;42.764;23.432;2023-03-19T10:00:51;96066.47;;;11.12;64.44
41686;BME280;27370;42.764;23.432;2023-03-19T10:14:01;96055.75;;;12.24;75.83
41686;BME280;27370;42.764;23.432;2023-03-19T10:16:33;96054.91;;;12.62;60.70
41686;BME280;27370;42.764;23.432;2023-03-19T10:19:02;96049.06;;;12.33;73.14
41686;BME280;27370;42.764;23.432;2023-03-19T10:21:42;96051.81;;;11.95;63.53
41686;BME280;27370;42.764;23.432;2023-03-19T10:24:26;96047.72;;;11.80;69.10
41686;BME280;27370;42.764;23.432;2023-03-19T10:27:03;96041.97;;;12.08;69.35
41686;BME280;27370;42.764;23.432;2023-03-19T10:29:30;96033.16;;;11.97;63.05
41686;BME280;27370;42.764;23.432;2023-03-19T10:34:42;96025.84;;;12.85;61.08
41686;BME280;27370;42.764;23.432;2023-03-19T10:39:37;96013.88;;;13.06;66.44
41686;BME280;27370;42.764;23.432;2023-03-19T10:45:32;96003.97;;;12.39;61.73
41686;BME280;27370;42.764;23.432;2023-03-19T10:48:01;95996.47;;;12.77;67.69
41686;BME280;27370;42.764;23.432;2023-03-19T10:50:47;95995.25;;;13.32;57.86
41686;BME280;27370;42.764;23.432;2023-03-19T10:55:47;95974.91;;;12.89;62.49
41686;BME280;27370;42.764;23.432;2023-03-19T10:58:18;95981.50;;;13.42;64.13
41686;BME280;27370;42.764;23.432;2023-03-19T11:00:56;95974.75;;;13.70;60.20
41686;BME280;27370;42.764;23.432;2023-03-19T11:06:05;95966.00;;;13.83;59.47
41686;BME280;27370;42.764;23.432;2023-03-19T11:08:38;95961.38;;;13.99;62.17
41686;BME280;27370;42.764;23.432;2023-03-19T11:11:04;95955.44;;;14.04;56.70
41686;BME280;27370;42.764;23.432;2023-03-19T11:13:33;95947.28;;;13.85;55.43
41686;BME280;27370;42.764;23.432;2023-03-19T11:15:59;95945.72;;;13.64;56.75
41686;BME280;27370;42.764;23.432;2023-03-19T11:18:34;95938.78;;;13.83;61.64
41686;BME280;27370;42.764;23.432;2023-03-19T11:21:07;95939.38;;;14.10;54.97
41686;BME280;27370;42.764;23.432;2023-03-19T11:23:38;95935.06;;;13.93;55.19
41686;BME280;27370;42.764;23.432;2023-03-19T11:26:04;95926.63;;;14.23;60.94
41686;BME280;27370;42.764;23.432;2023-03-19T11:28:31;95921.50;;;14.09;54.36
41686;BME280;27370;42.764;23.432;2023-03-19T11:34:20;95910.22;;;13.71;57.86
41686;BME280;27370;42.764;23.432;2023-03-19T11:42:36;95899.66;;;14.65;70.59
41686;BME280;27370;42.764;23.432;2023-03-19T11:54:04;95881.06;;;14.92;51.16
41686;BME280;27370;42.764;23.432;2023-03-19T12:12:52;95858.78;;;15.26;47.19
41686;BME280;27370;42.764;23.432;2023-03-19T12:15:30;95857.16;;;15.29;49.30
41686;BME280;27370;42.764;23.432;2023-03-19T12:21:21;95848.81;;;15.65;47.09
41686;BME280;27370;42.764;23.432;2023-03-19T12:24:09;95846.28;;;15.71;49.77
41686;BME280;27370;42.764;23.432;2023-03-19T12:27:15;95841.31;;;15.95;49.36
41686;BME280;27370;42.764;23.432;2023-03-19T12:32:15;95840.84;;;15.71;46.26
41686;BME280;27370;42.764;23.432;2023-03-19T12:34:54;95836.13;;;15.71;49.82
41686;BME280;27370;42.764;23.432;2023-03-19T12:37:34;95837.38;;;15.96;45.43
41686;BME280;27370;42.764;23.432;2023-03-19T12:42:45;95824.56;;;15.67;47.55
41686;BME280;27370;42.764;23.432;2023-03-19T12:47:59;95816.03;;;15.36;47.34
41686;BME280;27370;42.764;23.432;2023-03-19T12:50:29;95826.22;;;16.03;51.79
41686;BME280;27370;42.764;23.432;2023-03-19T12:52:59;95810.72;;;16.38;47.75
41686;BME280;27370;42.764;23.432;2023-03-19T12:55:36;95821.22;;;16.39;45.01
41686;BME280;27370;42.764;23.432;2023-03-19T13:00:54;95815.31;;;16.53;43.24
41686;BME280;27370;42.764;23.432;2023-03-19T13:06:08;95799.31;;;16.52;43.56
41686;BME280;27370;42.764;23.432;2023-03-19T13:09:00;95799.88;;;16.60;50.26
41686;BME280;27370;42.764;23.432;2023-03-19T13:11:48;95793.75;;;17.03;44.12
41686;BME280;27370;42.764;23.432;2023-03-19T13:14:41;95785.56;;;17.25;47.13
41686;BME280;27370;42.764;23.432;2023-03-19T13:21:12;95797.63;;;16.93;41.49
41686;BME280;27370;42.764;23.432;2023-03-19T13:23:06;95788.41;;;16.99;41.85
41686;BME280;27370;42.764;23.432;2023-03-19T13:25:37;95791.47;;;17.01;46.20
41686;BME280;27370;42.764;23.432;2023-03-19T13:28:12;95778.59;;;16.89;40.94
41686;BME280;27370;42.764;23.432;2023-03-19T13:33:25;95774.50;;;16.46;38.83
41686;BME280;27370;42.764;23.432;2023-03-19T13:35:53;95777.72;;;16.32;38.74
41686;BME280;27370;42.764;23.432;2023-03-19T13:38:23;95778.03;;;15.83;38.05
41686;BME280;27370;42.764;23.432;2023-03-19T13:40:52;95774.78;;;15.63;40.02
41686;BME280;27370;42.764;23.432;2023-03-19T13:43:38;95770.16;;;15.60;40.43
41686;BME280;27370;42.764;23.432;2023-03-19T13:46:38;95766.41;;;15.54;40.51
41686;BME280;27370;42.764;23.432;2023-03-19T13:49:26;95762.59;;;15.51;41.14
41686;BME280;27370;42.764;23.432;2023-03-19T13:51:58;95766.41;;;15.54;42.06
41686;BME280;27370;42.764;23.432;2023-03-19T13:54:43;95756.97;;;15.29;40.38
41686;BME280;27370;42.764;23.432;2023-03-19T13:59:42;95747.47;;;15.34;44.36
41686;BME280;27370;42.764;23.432;2023-03-19T14:04:51;95749.78;;;15.36;39.49
41686;BME280;27370;42.764;23.432;2023-03-19T14:07:24;95748.66;;;15.20;39.47
41686;BME280;27370;42.764;23.432;2023-03-19T14:12:34;95746.72;;;15.21;41.11
41686;BME280;27370;42.764;23.432;2023-03-19T14:17:35;95740.94;;;15.31;42.05
41686;BME280;27370;42.764;23.432;2023-03-19T14:23:02;95743.06;;;15.53;41.58
41686;BME280;27370;42.764;23.432;2023-03-19T14:25:51;95739.63;;;15.65;44.81
41686;BME280;27370;42.764;23.432;2023-03-19T14:28:19;95733.81;;;15.63;39.53
41686;BME280;27370;42.764;23.432;2023-03-19T14:30:47;95734.66;;;15.60;40.66
41686;BME280;27370;42.764;23.432;2023-03-19T14:33:21;95735.34;;;15.64;45.36